Time;durP1;ratioP1;P1;durP2;ratioP2;P2;SDS_P1;SDS_P2;PMS_P1;PMS_P2;Temp;Humidity;BMP_temperature;BMP_pressure;BME280_temperature;BME280_humidity;BME280_pressure;Samples;Min_cycle;Max_cycle;Signal;HPM_P1;HPM_P2
2022/03/22 00:01:30;;;;;;;20.15;10.82;;;4.10;99.90;;;;;;6306124;22;20022;-83
2022/03/22 00:03:56;;;;;;;24.45;11.65;;;4.20;99.90;;;;;;6305955;22;20023;-80
2022/03/22 00:06:22;;;;;;;24.42;12.40;;;4.10;99.90;;;;;;6307026;22;20022;-85
2022/03/22 00:08:48;;;;;;;21.27;10.40;;;4.10;99.90;;;;;;6306224;22;20449;-87
2022/03/22 00:11:14;;;;;;;20.23;9.85;;;4.10;99.90;;;;;;6279163;22;20068;-86
2022/03/22 00:13:44;;;;;;;22.60;10.40;;;4.10;99.90;;;;;;6306887;22;20015;-83
2022/03/22 00:16:12;;;;;;;22.05;10.68;;;4.00;99.90;;;;;;6306614;22;20018;-82
2022/03/22 00:18:38;;;;;;;20.63;10.30;;;4.00;99.90;;;;;;6306943;22;20044;-83
2022/03/22 00:21:06;;;;;;;21.00;11.52;;;4.00;99.90;;;;;;6306295;22;20013;-82
2022/03/22 00:50:40;;;;;;;22.17;11.48;;;3.70;99.90;;;;;;6249582;22;20024;-88
2022/03/22 00:53:08;;;;;;;23.30;12.70;;;3.80;99.90;;;;;;6218013;23;20074;-89
2022/03/22 00:55:34;;;;;;;22.58;12.52;;;3.70;99.90;;;;;;6244937;23;20096;-89
2022/03/22 00:58:00;;;;;;;19.77;10.63;;;3.70;99.90;;;;;;6244656;23;20026;-86
2022/03/22 01:00:27;;;;;;;22.98;10.88;;;4.00;99.90;;;;;;6244675;23;20012;-88
2022/03/22 01:02:56;;;;;;;21.95;11.48;;;3.70;99.90;;;;;;6245268;23;20338;-87
2022/03/22 01:05:23;;;;;;;24.83;12.40;;;3.60;99.90;;;;;;6245212;23;20020;-80
2022/03/22 01:07:51;;;;;;;21.13;11.13;;;3.60;99.90;;;;;;6244927;23;20012;-84
2022/03/22 01:10:18;;;;;;;22.73;11.90;;;3.60;99.90;;;;;;6244991;23;20047;-85
2022/03/22 01:12:46;;;;;;;22.52;11.48;;;3.50;99.90;;;;;;6245328;23;20388;-80
2022/03/22 01:15:20;;;;;;;22.33;12.77;;;3.50;99.90;;;;;;6244778;23;20055;-83
2022/03/22 01:17:50;;;;;;;25.33;13.20;;;3.50;99.90;;;;;;6217918;23;20012;-85
2022/03/22 01:20:19;;;;;;;22.45;11.43;;;3.50;99.90;;;;;;6244400;23;20020;-83
2022/03/22 01:22:47;;;;;;;22.95;11.82;;;3.50;99.90;;;;;;6244846;23;20440;-86
2022/03/22 01:25:15;;;;;;;20.52;11.07;;;3.50;99.90;;;;;;6244562;23;20047;-85
2022/03/22 01:27:42;;;;;;;20.35;10.80;;;3.40;99.90;;;;;;6244757;23;20063;-88
2022/03/22 01:30:10;;;;;;;22.38;10.70;;;3.40;99.90;;;;;;6244905;23;20078;-85
2022/03/22 01:32:36;;;;;;;20.40;10.30;;;3.50;99.90;;;;;;6247029;23;20016;-84
2022/03/22 01:35:03;;;;;;;17.75;9.40;;;3.40;99.90;;;;;;6246990;23;20008;-85
2022/03/22 01:37:29;;;;;;;16.92;9.68;;;3.40;99.90;;;;;;6246442;23;20027;-89
2022/03/22 01:39:55;;;;;;;20.92;10.85;;;3.40;99.90;;;;;;6246796;23;20345;-87
2022/03/22 01:42:22;;;;;;;20.85;11.63;;;3.40;99.90;;;;;;6246527;23;20311;-88
2022/03/22 01:44:51;;;;;;;24.45;12.07;;;3.40;99.90;;;;;;6246245;23;20023;-85
2022/03/22 01:47:19;;;;;;;21.00;11.05;;;3.40;99.90;;;;;;6246676;23;20015;-86
2022/03/22 01:49:46;;;;;;;23.67;11.30;;;3.50;99.90;;;;;;6245929;22;20073;-83
2022/03/22 01:52:16;;;;;;;25.50;12.05;;;3.50;99.90;;;;;;6246502;23;20051;-86
2022/03/22 01:54:42;;;;;;;23.90;11.40;;;3.50;99.90;;;;;;6246421;23;20087;-86
2022/03/22 01:57:09;;;;;;;24.98;12.15;;;3.60;99.90;;;;;;6246403;23;20391;-87
2022/03/22 01:59:35;;;;;;;21.98;12.00;;;3.50;99.90;;;;;;6246450;23;20016;-88
2022/03/22 02:07:32;;;;;;;22.92;12.02;;;3.50;99.90;;;;;;6246619;23;20043;-87
2022/03/22 02:09:58;;;;;;;22.75;11.75;;;3.50;99.90;;;;;;6246409;23;20525;-89
2022/03/22 02:12:24;;;;;;;25.08;12.88;;;3.50;99.90;;;;;;6219319;23;20052;-88
2022/03/22 02:14:50;;;;;;;23.05;12.45;;;3.50;99.90;;;;;;6246853;23;20028;-87
2022/03/22 02:17:16;;;;;;;22.90;12.05;;;3.50;99.90;;;;;;6249511;23;20311;-88
2022/03/22 02:19:41;;;;;;;25.77;12.98;;;3.50;99.90;;;;;;6249102;23;20020;-88
2022/03/22 02:22:11;;;;;;;23.35;11.90;;;3.50;99.90;;;;;;6250020;23;20016;-88
2022/03/22 02:24:38;;;;;;;23.55;12.20;;;3.50;99.90;;;;;;6248790;23;20358;-88
2022/03/22 02:27:04;;;;;;;27.48;12.50;;;3.50;99.90;;;;;;6249865;23;20026;-86
2022/03/22 02:29:29;;;;;;;22.85;12.48;;;3.50;99.90;;;;;;6250614;23;20401;-88
2022/03/22 02:31:55;;;;;;;27.92;13.18;;;3.50;99.90;;;;;;6247921;23;20066;-88
2022/03/22 02:34:21;;;;;;;25.63;12.38;;;3.50;99.90;;;;;;6250315;23;20334;-88
2022/03/22 02:36:47;;;;;;;23.38;12.88;;;3.50;99.90;;;;;;6249379;23;20051;-88
2022/03/22 02:39:13;;;;;;;22.63;12.57;;;3.50;99.90;;;;;;6249341;23;20052;-86
2022/03/22 02:41:39;;;;;;;22.80;13.25;;;3.50;99.90;;;;;;6247551;23;20017;-87
2022/03/22 02:44:05;;;;;;;26.02;13.55;;;3.40;99.90;;;;;;6247533;23;20024;-88
2022/03/22 02:46:30;;;;;;;24.90;13.07;;;3.40;99.90;;;;;;6247501;23;20101;-87
2022/03/22 02:48:56;;;;;;;25.10;13.35;;;3.40;99.90;;;;;;6246472;22;20097;-88
2022/03/22 02:51:22;;;;;;;25.38;13.20;;;3.40;99.90;;;;;;6246914;22;20095;-87
2022/03/22 02:53:48;;;;;;;26.48;13.20;;;3.40;99.90;;;;;;6247462;23;20047;-87
2022/03/22 02:56:13;;;;;;;22.90;12.88;;;3.40;99.90;;;;;;6247110;23;20051;-87
2022/03/22 02:58:39;;;;;;;27.92;13.80;;;3.40;99.90;;;;;;6247418;23;20020;-80
2022/03/22 03:01:05;;;;;;;24.20;12.57;;;3.40;99.90;;;;;;6246833;23;20020;-85
2022/03/22 03:03:33;;;;;;;24.48;12.45;;;3.40;99.90;;;;;;6219853;23;20008;-87
2022/03/22 03:06:00;;;;;;;23.05;12.00;;;3.40;99.90;;;;;;6220131;23;20020;-88
2022/03/22 03:08:26;;;;;;;24.00;12.15;;;3.40;99.90;;;;;;6247147;23;20017;-87
2022/03/22 03:10:53;;;;;;;23.92;12.48;;;3.40;99.90;;;;;;6246873;23;20016;-87
2022/03/22 03:13:19;;;;;;;26.10;12.82;;;3.40;99.90;;;;;;6246661;23;20008;-88
2022/03/22 03:15:46;;;;;;;24.48;12.60;;;3.40;99.90;;;;;;6246967;23;20050;-87
2022/03/22 03:18:13;;;;;;;23.55;12.50;;;3.40;99.90;;;;;;6246369;23;20449;-87
2022/03/22 03:20:39;;;;;;;19.92;11.35;;;3.40;99.90;;;;;;6246718;23;20130;-88
2022/03/22 03:23:05;;;;;;;22.70;11.90;;;3.40;99.90;;;;;;6246875;23;20035;-88
2022/03/22 03:25:31;;;;;;;22.20;11.27;;;3.40;99.90;;;;;;6246935;23;20380;-87
2022/03/22 03:27:56;;;;;;;24.52;12.25;;;3.40;99.90;;;;;;6246676;23;20520;-87
2022/03/22 03:30:22;;;;;;;21.40;11.45;;;3.40;99.90;;;;;;6246424;23;20099;-85
2022/03/22 03:32:48;;;;;;;22.75;12.13;;;2.80;99.90;;;;;;6245889;23;20012;-87
2022/03/22 03:35:14;;;;;;;24.27;12.93;;;3.30;99.90;;;;;;6220245;23;20350;-86
2022/03/22 03:37:44;;;;;;;27.88;15.93;;;3.30;99.90;;;;;;6246426;23;20028;-87
2022/03/22 03:40:10;;;;;;;24.42;12.70;;;3.30;99.90;;;;;;6246548;23;20012;-87
2022/03/22 03:42:42;;;;;;;23.75;12.50;;;3.30;99.90;;;;;;6248155;23;20083;-88
2022/03/22 03:47:55;;;;;;;;;;;3.30;99.90;;;;;;6248053;23;20020;-89
2022/03/22 03:50:21;;;;;;;26.48;13.68;;;3.30;99.90;;;;;;6248028;22;20257;-89
2022/03/22 03:52:47;;;;;;;23.73;12.48;;;3.30;99.90;;;;;;6247015;23;20016;-88
2022/03/22 03:55:13;;;;;;;23.65;11.55;;;3.30;99.90;;;;;;6248383;23;20496;-88
2022/03/22 03:57:39;;;;;;;24.00;12.75;;;3.40;99.90;;;;;;6255050;23;20016;-88
2022/03/22 04:00:07;;;;;;;21.15;11.55;;;3.40;99.90;;;;;;6225366;23;20020;-88
2022/03/22 04:02:33;;;;;;;24.00;12.57;;;3.40;99.90;;;;;;6222566;23;20012;-87
2022/03/22 04:04:58;;;;;;;23.83;12.65;;;3.40;99.90;;;;;;6253137;23;20043;-88
2022/03/22 04:07:26;;;;;;;23.27;12.32;;;3.40;99.90;;;;;;6254173;23;20455;-88
2022/03/22 04:09:54;;;;;;;24.80;12.77;;;3.40;99.90;;;;;;6221789;23;20016;-88
2022/03/22 04:12:22;;;;;;;23.15;12.93;;;3.40;99.90;;;;;;6246081;23;20020;-89
2022/03/22 04:14:51;;;;;;;24.25;12.93;;;3.40;99.90;;;;;;6246156;23;20008;-88
2022/03/22 04:17:48;;;;;;;25.05;12.43;;;2.70;99.90;;;;;;6245196;23;20016;-87
2022/03/22 04:20:13;;;;;;;23.52;12.23;;;3.40;99.90;;;;;;6245860;23;20346;-87
2022/03/22 04:22:39;;;;;;;21.33;12.13;;;3.40;99.90;;;;;;6245173;23;20016;-79
2022/03/22 04:25:05;;;;;;;24.73;13.20;;;3.40;99.90;;;;;;6245817;23;20020;-88
2022/03/22 04:33:00;;;;;;;25.50;12.60;;;3.40;99.90;;;;;;6244867;23;20532;-88
2022/03/22 04:35:27;;;;;;;28.08;12.65;;;3.30;99.90;;;;;;6218222;23;20020;-86
2022/03/22 04:37:53;;;;;;;25.48;13.20;;;3.30;99.90;;;;;;6244754;23;20062;-87
2022/03/22 04:40:20;;;;;;;23.17;12.95;;;3.30;99.90;;;;;;6244929;23;20450;-86
2022/03/22 04:42:52;;;;;;;24.15;12.23;;;3.30;99.90;;;;;;6245096;23;20012;-86
2022/03/22 04:45:18;;;;;;;21.23;11.50;;;3.30;99.90;;;;;;6245138;23;20047;-87
2022/03/22 04:47:45;;;;;;;22.73;11.27;;;3.40;99.90;;;;;;6244773;23;20020;-87
2022/03/22 04:50:12;;;;;;;21.52;11.65;;;3.30;99.90;;;;;;6244351;22;20086;-87
2022/03/22 04:58:08;;;;;;;21.30;11.63;;;3.40;99.90;;;;;;6245050;23;20024;-89
2022/03/22 05:00:35;;;;;;;21.60;11.63;;;3.40;99.90;;;;;;6244780;23;20031;-88
2022/03/22 05:03:05;;;;;;;23.45;12.55;;;3.40;99.90;;;;;;6218069;23;20020;-80
2022/03/22 05:08:15;;;;;;;27.08;13.73;;;3.50;99.90;;;;;;6246865;23;20069;-88
2022/03/22 05:10:41;;;;;;;23.65;12.93;;;3.40;99.90;;;;;;6246603;23;20047;-87
2022/03/22 05:13:07;;;;;;;27.98;13.73;;;3.40;99.90;;;;;;6246955;23;20020;-88
2022/03/22 05:15:33;;;;;;;25.60;13.75;;;3.40;99.90;;;;;;6246397;23;20020;-88
2022/03/22 05:17:59;;;;;;;24.15;12.60;;;3.40;99.90;;;;;;6246736;23;20047;-87
2022/03/22 05:20:25;;;;;;;25.02;14.32;;;3.40;99.90;;;;;;6246653;23;20020;-87
2022/03/22 05:22:51;;;;;;;25.80;13.38;;;3.30;99.90;;;;;;6246763;23;20338;-86
2022/03/22 05:25:17;;;;;;;20.98;11.63;;;3.40;99.90;;;;;;6246709;23;20500;-87
2022/03/22 05:27:42;;;;;;;23.70;13.38;;;3.30;99.90;;;;;;6246809;23;20016;-88
2022/03/22 05:30:09;;;;;;;23.55;12.63;;;3.40;99.90;;;;;;6219139;23;20015;-87
2022/03/22 05:32:35;;;;;;;23.95;13.45;;;3.40;99.90;;;;;;6246429;23;20026;-88
2022/03/22 05:35:01;;;;;;;24.70;13.07;;;3.40;99.90;;;;;;6246570;23;20079;-82
2022/03/22 05:37:26;;;;;;;25.73;13.48;;;3.40;99.90;;;;;;6246834;23;20027;-80
2022/03/22 05:39:52;;;;;;;25.90;13.88;;;3.40;99.90;;;;;;6246643;23;20016;-83
2022/03/22 05:42:18;;;;;;;23.13;13.13;;;3.40;99.90;;;;;;6247001;23;20016;-86
2022/03/22 05:44:44;;;;;;;27.23;13.63;;;3.40;99.90;;;;;;6246408;23;20385;-87
2022/03/22 05:47:10;;;;;;;25.20;14.18;;;3.40;99.90;;;;;;6246745;23;20442;-85
2022/03/22 05:49:37;;;;;;;25.83;14.20;;;3.40;99.90;;;;;;6246010;22;20023;-87
2022/03/22 05:52:03;;;;;;;24.42;11.93;;;3.40;99.90;;;;;;6246199;23;20020;-88
2022/03/22 05:54:29;;;;;;;23.25;12.68;;;3.40;99.90;;;;;;6246257;23;20019;-85
2022/03/22 05:56:55;;;;;;;24.48;12.27;;;3.40;99.90;;;;;;6246373;23;20019;-89
2022/03/22 05:59:21;;;;;;;25.58;13.30;;;3.40;99.90;;;;;;6246431;23;20019;-86
2022/03/22 06:01:47;;;;;;;27.00;12.45;;;3.40;99.90;;;;;;6246569;23;20013;-84
2022/03/22 06:04:13;;;;;;;23.13;12.05;;;3.40;99.90;;;;;;6246108;23;20023;-86
2022/03/22 06:06:39;;;;;;;23.55;12.05;;;3.40;99.90;;;;;;6246440;23;20016;-89
2022/03/22 06:09:06;;;;;;;23.02;12.63;;;3.50;99.90;;;;;;6219419;23;20466;-87
2022/03/22 06:11:35;;;;;;;24.20;12.00;;;3.50;99.90;;;;;;6246047;23;20020;-87
2022/03/22 06:14:05;;;;;;;20.55;10.90;;;3.50;99.90;;;;;;6246159;23;20012;-85
2022/03/22 06:16:31;;;;;;;20.67;10.80;;;3.60;99.90;;;;;;6218925;23;20074;-84
2022/03/22 06:18:58;;;;;;;20.75;11.10;;;3.60;99.90;;;;;;6245573;23;20017;-85
2022/03/22 06:21:23;;;;;;;20.85;11.50;;;3.60;99.90;;;;;;6246124;23;20048;-86
2022/03/22 06:23:49;;;;;;;20.55;11.60;;;3.60;99.90;;;;;;6246840;23;20016;-85
2022/03/22 06:26:15;;;;;;;24.42;11.88;;;3.70;99.90;;;;;;6219717;23;20095;-83
2022/03/22 06:28:41;;;;;;;26.02;12.65;;;3.70;99.90;;;;;;6246503;23;20078;-88
2022/03/22 06:31:08;;;;;;;20.73;11.25;;;3.70;99.90;;;;;;6246189;23;20012;-84
2022/03/22 06:33:34;;;;;;;21.65;11.35;;;3.80;99.90;;;;;;6218938;23;20023;-84
2022/03/22 06:36:00;;;;;;;23.60;11.05;;;3.80;99.90;;;;;;6246461;23;20016;-83
2022/03/22 06:38:26;;;;;;;17.90;10.15;;;3.80;99.90;;;;;;6245972;23;20016;-84
2022/03/22 06:40:54;;;;;;;20.17;11.05;;;3.90;99.90;;;;;;6218832;23;20099;-83
2022/03/22 06:43:20;;;;;;;23.02;12.32;;;3.90;99.90;;;;;;6245618;23;20480;-81
2022/03/22 06:45:47;;;;;;;22.20;12.00;;;3.90;99.90;;;;;;6218743;23;20016;-81
2022/03/22 06:48:15;;;;;;;24.10;12.00;;;4.00;99.90;;;;;;6245395;23;20023;-82
2022/03/22 06:50:43;;;;;;;19.73;10.55;;;4.00;99.90;;;;;;6245452;23;20028;-81
2022/03/22 06:53:09;;;;;;;20.52;11.43;;;4.10;99.90;;;;;;6218886;23;20022;-83
2022/03/22 06:55:36;;;;;;;23.65;11.88;;;4.10;99.90;;;;;;6218996;23;20396;-82
2022/03/22 06:58:03;;;;;;;25.75;12.55;;;4.20;99.90;;;;;;6246124;23;20094;-83
2022/03/22 07:00:31;;;;;;;21.95;11.85;;;4.20;99.90;;;;;;6245863;23;20066;-82
2022/03/22 07:02:57;;;;;;;23.15;11.85;;;4.20;99.90;;;;;;6245256;23;20024;-84
2022/03/22 07:05:23;;;;;;;21.65;11.82;;;4.30;99.90;;;;;;6245938;23;20019;-85
2022/03/22 07:07:49;;;;;;;20.83;11.75;;;4.30;99.90;;;;;;6245387;23;20020;-81
2022/03/22 07:10:16;;;;;;;22.10;11.02;;;4.40;99.90;;;;;;6218828;23;20032;-83
2022/03/22 07:12:47;;;;;;;22.85;11.93;;;4.40;99.90;;;;;;6245693;23;20013;-83
2022/03/22 07:15:13;;;;;;;23.40;12.27;;;4.50;99.90;;;;;;6245632;23;20016;-84
2022/03/22 07:17:40;;;;;;;20.10;11.93;;;4.50;99.90;;;;;;6245413;23;20038;-83
2022/03/22 07:20:07;;;;;;;20.02;11.00;;;4.50;99.90;;;;;;6218293;23;20385;-84
2022/03/22 07:22:33;;;;;;;22.17;11.52;;;4.60;99.90;;;;;;6245823;23;20023;-84
2022/03/22 07:24:58;;;;;;;19.35;11.32;;;4.60;99.90;;;;;;6245507;23;20346;-83
2022/03/22 07:27:24;;;;;;;21.92;10.77;;;4.70;99.90;;;;;;6218595;23;20023;-85
2022/03/22 07:29:51;;;;;;;20.15;10.77;;;4.80;99.90;;;;;;6245142;23;20031;-84
2022/03/22 07:32:17;;;;;;;18.05;10.02;;;4.90;99.90;;;;;;6245280;23;20449;-84
2022/03/22 07:34:43;;;;;;;17.00;9.60;;;4.90;99.90;;;;;;6245515;23;20013;-86
2022/03/22 07:37:09;;;;;;;17.33;9.60;;;5.00;99.90;;;;;;6245108;23;20385;-85
2022/03/22 07:39:35;;;;;;;18.17;10.23;;;5.10;99.90;;;;;;6245599;23;20066;-84
2022/03/22 07:42:01;;;;;;;19.27;10.73;;;5.20;99.90;;;;;;6245924;23;20498;-84
2022/03/22 07:44:27;;;;;;;18.10;10.15;;;5.30;99.90;;;;;;6248856;23;20044;-83
2022/03/22 07:46:53;;;;;;;15.95;9.45;;;5.30;99.90;;;;;;6248125;23;20462;-84
2022/03/22 07:54:48;;;;;;;15.50;9.68;;;5.60;99.90;;;;;;6249802;23;20103;-84
2022/03/22 07:57:14;;;;;;;18.98;10.18;;;5.70;99.90;;;;;;6246927;23;20074;-80
2022/03/22 07:59:39;;;;;;;19.52;10.43;;;5.30;99.90;;;;;;6245327;23;20382;-81
2022/03/22 08:02:05;;;;;;;18.73;10.40;;;5.80;99.90;;;;;;6245543;23;20020;-84
2022/03/22 08:04:31;;;;;;;20.20;10.63;;;5.90;99.90;;;;;;6245611;23;20017;-82
2022/03/22 08:06:57;;;;;;;19.80;10.85;;;6.00;99.90;;;;;;6245207;23;20100;-82
2022/03/22 08:09:22;;;;;;;19.42;10.52;;;6.10;99.90;;;;;;6245273;23;20012;-81
2022/03/22 08:11:50;;;;;;;15.75;9.82;;;6.20;99.90;;;;;;6244966;23;20099;-82
2022/03/22 08:14:15;;;;;;;17.67;9.55;;;6.30;99.90;;;;;;6218038;23;20454;-82
2022/03/22 08:16:42;;;;;;;20.63;11.98;;;6.50;99.90;;;;;;6244964;23;20015;-81
2022/03/22 08:19:07;;;;;;;23.08;11.02;;;6.70;99.90;;;;;;6217471;23;20034;-81
2022/03/22 08:21:34;;;;;;;20.50;11.68;;;6.80;99.90;;;;;;6245015;23;20414;-84
2022/03/22 08:24:00;;;;;;;32.55;16.70;;;7.10;99.90;;;;;;6245060;23;20020;-83
2022/03/22 08:26:27;;;;;;;28.95;15.63;;;7.20;99.90;;;;;;6244899;23;20016;-79
2022/03/22 08:28:54;;;;;;;28.25;15.80;;;7.40;99.90;;;;;;6245257;23;20341;-83
2022/03/22 08:31:20;;;;;;;22.92;13.65;;;7.60;99.90;;;;;;6244550;23;20535;-84
2022/03/22 08:33:46;;;;;;;20.63;11.68;;;7.80;99.90;;;;;;6245452;23;20016;-82
2022/03/22 08:36:12;;;;;;;18.80;9.80;;;8.00;99.90;;;;;;6217966;23;20019;-82
2022/03/22 08:38:37;;;;;;;19.48;11.20;;;8.20;99.90;;;;;;6245339;23;20048;-83
2022/03/22 08:41:03;;;;;;;22.23;12.40;;;8.40;99.90;;;;;;6246795;22;20020;-83
2022/03/22 08:43:30;;;;;;;19.80;12.13;;;8.60;99.90;;;;;;6221329;23;20016;-83
2022/03/22 08:45:56;;;;;;;17.48;9.52;;;8.90;99.90;;;;;;6221114;23;20016;-85
2022/03/22 08:48:23;;;;;;;22.05;10.88;;;9.10;99.90;;;;;;6220744;23;20442;-85
2022/03/22 08:50:50;;;;;;;25.50;14.63;;;9.30;99.90;;;;;;6247936;22;20020;-83
2022/03/22 08:53:18;;;;;;;24.73;13.07;;;9.50;99.90;;;;;;6247982;23;20393;-82
2022/03/22 08:55:44;;;;;;;26.23;14.70;;;9.70;99.90;;;;;;6248122;23;20020;-84
2022/03/22 08:58:10;;;;;;;25.92;14.57;;;9.90;99.90;;;;;;6248291;23;20015;-83
2022/03/22 09:00:37;;;;;;;28.23;16.95;;;10.10;99.90;;;;;;6248442;23;20334;-84
2022/03/22 09:03:05;;;;;;;26.60;14.95;;;10.30;99.90;;;;;;6248347;23;20023;-81
2022/03/22 09:08:15;;;;;;;19.60;11.07;;;10.70;99.90;;;;;;6248310;23;20055;-82
2022/03/22 09:10:41;;;;;;;21.52;11.60;;;11.00;99.90;;;;;;6248011;23;20027;-82
2022/03/22 09:13:08;;;;;;;21.90;11.00;;;11.20;99.90;;;;;;6220990;23;20012;-85
2022/03/22 09:15:39;;;;;;;18.38;10.52;;;11.40;99.90;;;;;;6248351;23;20342;-82
2022/03/22 09:18:05;;;;;;;21.38;12.55;;;11.60;99.90;;;;;;6220875;23;20098;-82
2022/03/22 09:20:32;;;;;;;19.55;12.05;;;11.80;99.90;;;;;;6248503;23;20138;-85
2022/03/22 09:23:00;;;;;;;21.27;10.90;;;12.00;99.90;;;;;;6248457;23;20307;-83
2022/03/22 09:25:30;;;;;;;24.95;13.05;;;12.10;99.90;;;;;;6248188;23;20023;-83
2022/03/22 09:27:56;;;;;;;16.52;10.43;;;12.30;99.90;;;;;;6221181;23;20095;-81
2022/03/22 09:30:22;;;;;;;21.40;12.35;;;12.50;99.90;;;;;;6247841;23;20012;-83
2022/03/22 09:32:48;;;;;;;22.10;13.30;;;12.70;99.90;;;;;;6245238;23;20469;-83
2022/03/22 09:35:17;;;;;;;22.42;11.52;;;12.90;99.90;;;;;;6247398;23;20012;-83
2022/03/22 09:37:43;;;;;;;19.02;11.00;;;13.10;99.90;;;;;;6247836;23;20069;-80
2022/03/22 09:40:12;;;;;;;16.83;10.23;;;13.20;99.90;;;;;;6247492;23;20017;-83
2022/03/22 09:42:42;;;;;;;17.77;9.38;;;13.40;99.90;;;;;;6248186;23;20012;-83
2022/03/22 09:45:09;;;;;;;19.23;10.52;;;13.60;99.90;;;;;;6221845;23;20016;-81
2022/03/22 09:47:36;;;;;;;18.95;10.75;;;13.70;99.90;;;;;;6220129;23;20016;-83
2022/03/22 09:50:07;;;;;;;20.63;10.35;;;13.90;99.90;;;;;;6220264;23;20012;-83
2022/03/22 09:52:34;;;;;;;17.45;9.38;;;14.00;99.90;;;;;;6246880;23;20099;-81
2022/03/22 09:55:00;;;;;;;19.15;10.20;;;14.20;99.90;;;;;;6246327;23;20031;-83
2022/03/22 09:57:27;;;;;;;21.85;11.40;;;14.40;99.90;;;;;;6245819;23;20012;-84
2022/03/22 09:59:53;;;;;;;19.02;10.45;;;14.50;99.90;;;;;;6219228;23;20516;-81
2022/03/22 10:02:30;;;;;;;20.05;11.32;;;14.70;99.90;;;;;;6245314;23;20020;-83
2022/03/22 10:04:56;;;;;;;21.42;10.73;;;14.80;99.90;;;;;;6246580;23;20031;-83
2022/03/22 10:07:23;;;;;;;19.38;10.85;;;14.90;99.90;;;;;;6246455;23;20461;-83
2022/03/22 10:10:05;;;;;;;19.85;11.52;;;15.00;99.90;;;;;;6218856;23;20072;-82
2022/03/22 10:12:35;;;;;;;18.27;9.75;;;15.20;99.90;;;;;;6246175;23;20461;-83
2022/03/22 10:15:10;;;;;;;17.25;9.98;;;15.40;99.90;;;;;;6246313;23;20039;-85
2022/03/22 10:17:37;;;;;;;20.23;12.20;;;15.60;99.90;;;;;;6245593;23;20387;-84
2022/03/22 10:20:24;;;;;;;20.95;11.45;;;15.70;99.90;;;;;;6218996;23;20031;-83
2022/03/22 10:23:17;;;;;;;23.38;12.60;;;15.80;99.90;;;;;;6245378;23;20016;-88
2022/03/22 10:26:27;;;;;;;;;;;16.00;99.90;;;;;;6245953;23;20027;-86
2022/03/22 10:29:26;;;;;;;23.70;12.73;;;16.20;99.90;;;;;;6170009;23;19968;-87
2022/03/22 10:32:26;;;;;;;21.83;13.10;;;16.40;99.90;;;;;;6244368;23;20141;-85
2022/03/22 10:35:56;;;;;;;;;;;;;;;;;;;;;
2022/03/22 10:42:33;;;;;;;22.38;12.80;;;16.80;99.90;;;;;;6246366;23;20046;-84
2022/03/22 10:45:43;;;;;;;17.90;10.88;;;17.10;99.90;;;;;;6245322;23;20050;-85
2022/03/22 10:48:47;;;;;;;20.20;10.70;;;17.40;99.90;;;;;;6245722;23;20347;-84
2022/03/22 10:52:03;;;;;;;19.77;11.25;;;17.70;99.90;;;;;;6245954;22;20075;-85
2022/03/22 10:55:18;;;;;;;;;;;;;;;;;;;;;
2022/03/22 10:58:37;;;;;;;22.75;13.38;;;17.90;97.60;;;;;;6218435;23;20024;-84
2022/03/22 11:01:50;;;;;;;23.63;13.00;;;17.90;98.90;;;;;;6245968;23;20024;-85
2022/03/22 11:05:23;;;;;;;;;;;;;;;;;;;;;
2022/03/22 11:08:28;;;;;;;22.63;12.68;;;18.10;98.10;;;;;;6216336;23;20017;-83
2022/03/22 11:11:30;;;;;;;23.95;13.23;;;18.30;97.30;;;;;;6215345;23;20020;-84
2022/03/22 11:14:40;;;;;;;;;;;;;;;;;;;;;
2022/03/22 11:17:55;;;;;;;27.95;14.80;;;18.30;96.00;;;;;;6245723;23;20027;-85
2022/03/22 11:37:07;;;;;;;21.88;12.50;;;18.80;97.20;;;;;;6236191;23;20107;31
2022/03/22 11:43:59;;;;;;;22.73;12.15;;;19.10;95.50;;;;;;6151118;23;20028;-85
2022/03/22 11:47:14;;;;;;;24.30;12.27;;;19.20;91.50;;;;;;6057980;23;20021;-85
2022/03/22 11:54:27;;;;;;;22.10;12.05;;;19.20;91.40;;;;;;5921279;24;20031;-85
2022/03/22 11:57:43;;;;;;;21.08;11.52;;;19.40;92.80;;;;;;5924540;23;20108;-85
2022/03/22 12:01:10;;;;;;;20.70;10.88;;;19.50;93.40;;;;;;5850350;24;20090;-85
2022/03/22 12:04:21;;;;;;;20.42;11.85;;;19.70;94.20;;;;;;5844460;24;20022;-86
2022/03/22 12:18:18;;;;;;;24.77;13.40;;;20.30;91.70;;;;;;5869151;24;20067;-85
2022/03/22 12:21:43;;;;;;;20.67;11.93;;;20.30;88.90;;;;;;5869636;24;20029;-85
2022/03/22 12:25:33;;;;;;;23.35;12.73;;;20.50;90.10;;;;;;5852807;24;20030;-87
2022/03/22 12:28:45;;;;;;;22.83;11.93;;;20.40;87.40;;;;;;5752765;24;20152;-88
2022/03/22 12:32:10;;;;;;;22.70;11.98;;;20.60;87.40;;;;;;5923812;24;20396;-88
2022/03/22 12:35:11;;;;;;;20.02;11.50;;;20.60;84.00;;;;;;5924112;24;20069;-88
2022/03/22 12:38:36;;;;;;;18.85;10.20;;;20.80;87.60;;;;;;5985995;22;20028;-89
2022/03/22 12:42:03;;;;;;;20.00;10.93;;;21.00;83.50;;;;;;6252139;22;20028;-88
2022/03/22 13:03:39;;;;;;;;;;;;;;;;;;;;;
2022/03/22 13:06:47;;;;;;;16.00;8.95;;;21.40;76.20;;;;;;6121632;23;20506;-84
2022/03/22 13:12:33;;;;;;;19.38;10.20;;;21.90;74.40;;;;;;6221622;22;20090;-84
2022/03/22 13:23:12;;;;;;;20.40;11.20;;;22.00;72.10;;;;;;6122478;23;20029;-85
2022/03/22 13:26:19;;;;;;;23.02;11.77;;;22.10;71.30;;;;;;6121332;23;20516;-85
2022/03/22 13:29:18;;;;;;;20.80;10.75;;;22.10;70.80;;;;;;6132110;23;20021;-85
2022/03/22 13:32:22;;;;;;;23.15;11.70;;;22.20;73.00;;;;;;6151366;23;20013;-85
2022/03/22 13:35:22;;;;;;;22.08;11.38;;;22.10;69.50;;;;;;6126972;23;20137;-85
2022/03/22 13:38:13;;;;;;;24.05;11.60;;;22.30;68.00;;;;;;6152440;23;20518;-84
2022/03/22 13:41:35;;;;;;;;;;;;;;;;;;;;;
2022/03/22 13:44:30;;;;;;;21.60;11.63;;;22.10;65.30;;;;;;6097824;23;20370;-84
2022/03/22 13:47:45;;;;;;;19.98;11.05;;;22.20;68.00;;;;;;6123592;23;20018;-88
2022/03/22 13:53:35;;;;;;;22.05;10.98;;;22.30;66.00;;;;;;6198230;22;20024;-83
2022/03/22 13:56:34;;;;;;;21.25;10.55;;;22.30;64.90;;;;;;6246026;23;20047;-86
2022/03/22 14:15:26;;;;;;;;;;;;;;;;;;;;;
2022/03/22 14:43:44;;;;;;;24.58;13.10;;;21.60;64.70;;;;;;6194920;22;20115;-87
2022/03/22 14:46:41;;;;;;;22.00;11.38;;;21.50;64.70;;;;;;6207161;23;20040;-87
2022/03/22 15:31:09;;;;;;;26.08;14.32;;;20.40;68.10;;;;;;5429023;22;20514342;-86
2022/03/22 15:45:46;;;;;;;25.70;15.57;;;19.00;95.30;;;;;;6131310;23;20050;-87
2022/03/22 15:50:08;;;;;;;;;;;;;;;;;;;;;
2022/03/22 16:00:54;;;;;;;30.77;16.38;;;18.20;98.10;;;;;;5825182;24;20083;-86
2022/03/22 16:23:35;;;;;;;27.92;15.77;;;17.60;99.90;;;;;;6222724;23;20015;-87
2022/03/22 16:26:47;;;;;;;25.45;14.48;;;17.30;99.90;;;;;;6220591;23;20024;-88
2022/03/22 16:30:01;;;;;;;28.33;15.68;;;17.20;99.90;;;;;;6206591;23;20031;-87
2022/03/22 16:39:45;;;;;;;30.67;17.48;;;16.90;99.90;;;;;;6215668;23;20066;-89
2022/03/22 16:43:16;;;;;;;;;;;;;;;;;;;;;
2022/03/22 16:46:43;;;;;;;28.33;16.02;;;16.70;99.90;;;;;;6212858;23;20012;-84
2022/03/22 16:49:37;;;;;;;27.30;15.10;;;16.40;99.90;;;;;;6191649;23;20485;-84
2022/03/22 16:52:29;;;;;;;31.83;16.35;;;16.30;99.90;;;;;;6214162;23;20092;-85
2022/03/22 16:55:30;;;;;;;30.88;16.17;;;16.20;99.90;;;;;;6163445;23;20155;-85
2022/03/22 16:58:04;;;;;;;28.35;15.45;;;16.00;99.90;;;;;;6207683;23;20020;-83
2022/03/22 17:00:31;;;;;;;30.13;17.00;;;15.90;99.90;;;;;;6215590;23;20097;-83
2022/03/22 17:03:04;;;;;;;25.58;15.25;;;15.80;99.90;;;;;;6213801;23;20021;-83
2022/03/22 17:05:33;;;;;;;28.98;15.90;;;15.70;99.90;;;;;;6215412;23;20320;-82
2022/03/22 17:08:01;;;;;;;28.98;17.92;;;15.50;99.90;;;;;;6215685;23;20310;-83
2022/03/22 17:10:30;;;;;;;37.08;19.80;;;15.30;99.90;;;;;;6215712;23;20012;-82
2022/03/22 17:12:59;;;;;;;34.13;19.80;;;15.20;99.90;;;;;;6214860;23;20020;-82
2022/03/22 17:15:29;;;;;;;32.10;18.52;;;15.00;99.90;;;;;;6214074;23;20188;-83
2022/03/22 17:17:57;;;;;;;28.92;17.15;;;14.90;99.90;;;;;;6188380;23;20095;-82
2022/03/22 17:20:31;;;;;;;33.75;18.75;;;14.80;99.90;;;;;;6215147;23;20025;-81
2022/03/22 17:23:02;;;;;;;36.50;20.20;;;14.70;99.90;;;;;;6214820;23;20009;-83
2022/03/22 17:26:04;;;;;;;41.00;21.27;;;14.50;99.90;;;;;;6213677;23;20021;-81
2022/03/22 17:29:12;;;;;;;32.22;19.25;;;14.30;99.90;;;;;;6163031;23;20023;-83
2022/03/22 17:32:14;;;;;;;36.22;19.80;;;14.10;99.90;;;;;;6207763;23;20024;-83
2022/03/22 17:35:14;;;;;;;38.97;20.33;;;13.90;99.90;;;;;;6208475;23;20012;-82
2022/03/22 17:38:26;;;;;;;;;;;;;;;;;;;;;
2022/03/22 17:41:45;;;;;;;;;;;;;;;;;;;;;
2022/03/22 17:44:56;;;;;;;31.85;19.92;;;13.30;99.90;;;;;;6069216;23;20090;-82
2022/03/22 17:47:51;;;;;;;;;;;;;;;;;;;;;
2022/03/22 17:50:58;;;;;;;33.75;19.30;;;12.90;99.90;;;;;;6069406;23;20030;-83
2022/03/22 17:53:51;;;;;;;34.28;19.17;;;12.80;99.90;;;;;;6045543;23;20022;-83